Time;durP1;ratioP1;P1;durP2;ratioP2;P2;SDS_P1;SDS_P2;PMS_P1;PMS_P2;Temp;Humidity;BMP_temperature;BMP_pressure;BME280_temperature;BME280_humidity;BME280_pressure;Samples;Min_cycle;Max_cycle;Signal;HPM_P1;HPM_P2
2021/09/22 00:01:53;;;;;;;9.68;6.60;;;;;18.00;102847.00;;;;5069801;28;20221;-76
2021/09/22 00:04:21;;;;;;;10.05;7.22;;;;;18.00;102856.00;;;;5054925;28;20191;-76
2021/09/22 00:06:48;;;;;;;10.00;7.10;;;;;18.00;102854.00;;;;5051421;28;20187;-76
2021/09/22 00:09:15;;;;;;;9.82;7.05;;;;;18.00;102859.00;;;;5049807;28;20207;-76
2021/09/22 00:11:43;;;;;;;11.68;7.15;;;;;18.00;102850.00;;;;5050814;28;20252;-76
2021/09/22 00:14:11;;;;;;;10.77;6.85;;;;;17.90;102845.00;;;;5050930;28;20673;-75
2021/09/22 00:16:38;;;;;;;10.50;7.22;;;;;17.90;102854.00;;;;5054434;28;20192;-75
2021/09/22 00:19:06;;;;;;;11.07;8.35;;;;;17.90;102857.00;;;;5050379;28;20227;-76
2021/09/22 00:21:33;;;;;;;10.50;7.10;;;;;17.90;102859.00;;;;5056600;28;20203;-75
2021/09/22 00:24:01;;;;;;;10.52;7.35;;;;;17.90;102857.00;;;;5051984;28;20204;-75
2021/09/22 00:26:28;;;;;;;10.57;7.40;;;;;17.90;102856.00;;;;5050932;28;20191;-76
2021/09/22 00:28:56;;;;;;;11.73;7.72;;;;;17.90;102849.00;;;;5050947;28;20227;-76
2021/09/22 00:31:24;;;;;;;12.18;8.50;;;;;17.80;102857.00;;;;5065533;28;20664;-76
2021/09/22 00:33:51;;;;;;;14.30;8.77;;;;;17.80;102854.00;;;;5063884;28;20200;-75
2021/09/22 00:36:19;;;;;;;10.20;8.13;;;;;17.80;102852.00;;;;5058664;28;20226;-75
2021/09/22 00:38:46;;;;;;;11.95;8.23;;;;;17.80;102857.00;;;;5056671;28;20230;-75
2021/09/22 00:41:13;;;;;;;10.10;7.85;;;;;17.80;102856.00;;;;5049924;28;20227;-75
2021/09/22 00:43:40;;;;;;;11.18;8.40;;;;;17.80;102855.00;;;;5062565;28;20699;-76
2021/09/22 00:46:07;;;;;;;10.02;7.43;;;;;17.70;102848.00;;;;5066287;28;20192;-75
2021/09/22 00:48:36;;;;;;;11.60;8.65;;;;;17.70;102846.00;;;;5050275;28;20199;-76
2021/09/22 00:51:05;;;;;;;11.15;8.27;;;;;17.70;102851.00;;;;5050126;28;20199;-75
2021/09/22 00:53:34;;;;;;;12.52;8.05;;;;;17.70;102847.00;;;;5053973;28;20206;-75
2021/09/22 00:56:03;;;;;;;13.57;8.23;;;;;17.70;102843.00;;;;5049627;28;20200;-75
2021/09/22 00:58:31;;;;;;;13.60;9.05;;;;;17.70;102844.00;;;;5055053;28;20227;-76
2021/09/22 01:00:58;;;;;;;11.68;7.78;;;;;17.70;102851.00;;;;5049572;28;20195;-75
2021/09/22 01:03:26;;;;;;;10.85;8.02;;;;;17.60;102848.00;;;;5048389;28;20203;-75
2021/09/22 01:05:55;;;;;;;10.15;7.72;;;;;17.60;102838.00;;;;5048474;28;20230;-75
2021/09/22 01:08:22;;;;;;;10.55;7.95;;;;;17.60;102837.00;;;;5049543;28;20192;-75
2021/09/22 01:10:50;;;;;;;11.30;8.85;;;;;17.60;102836.00;;;;5048547;28;20241;-75
2021/09/22 01:13:18;;;;;;;11.10;8.10;;;;;17.50;102837.00;;;;5048575;28;20207;-75
2021/09/22 01:15:46;;;;;;;13.15;8.98;;;;;17.50;102837.00;;;;5048500;28;20204;-75
2021/09/22 01:18:16;;;;;;;12.23;8.43;;;;;17.50;102828.00;;;;5047968;28;20199;-75
2021/09/22 01:20:45;;;;;;;14.77;9.20;;;;;17.50;102830.00;;;;5049346;28;20254;-75
2021/09/22 01:23:15;;;;;;;10.75;7.97;;;;;17.50;102835.00;;;;5048148;28;20203;-75
2021/09/22 01:25:45;;;;;;;11.02;8.45;;;;;17.40;102825.00;;;;5048782;28;20678;-75
2021/09/22 01:28:14;;;;;;;12.85;8.20;;;;;17.40;102823.00;;;;5049110;28;20199;-75
2021/09/22 01:30:42;;;;;;;13.48;8.85;;;;;17.40;102824.00;;;;5061219;28;20217;-75
2021/09/22 01:33:11;;;;;;;11.35;7.90;;;;;17.40;102827.00;;;;5056943;28;20570;-75
2021/09/22 01:35:40;;;;;;;11.50;7.70;;;;;17.40;102821.00;;;;5051449;28;20191;-75
2021/09/22 01:38:10;;;;;;;12.35;8.80;;;;;17.30;102814.00;;;;5048921;28;20199;-75
2021/09/22 01:40:39;;;;;;;11.20;7.80;;;;;17.30;102818.00;;;;5050521;28;20230;-75
2021/09/22 01:43:06;;;;;;;10.60;7.78;;;;;17.30;102817.00;;;;5049059;28;20203;-75
2021/09/22 01:45:34;;;;;;;11.30;8.07;;;;;17.30;102821.00;;;;5058506;28;20198;-75
2021/09/22 01:48:06;;;;;;;12.07;9.02;;;;;17.20;102815.00;;;;5057612;28;20202;-75
2021/09/22 01:50:34;;;;;;;11.88;8.93;;;;;17.30;102821.00;;;;5066121;28;20195;-75
2021/09/22 01:53:01;;;;;;;13.88;8.90;;;;;17.30;102824.00;;;;5061616;28;20203;-75
2021/09/22 01:55:28;;;;;;;12.05;8.63;;;;;17.20;102823.00;;;;5046950;28;20235;-75
2021/09/22 01:57:57;;;;;;;14.52;9.35;;;;;17.20;102819.00;;;;5046325;28;20203;-75
2021/09/22 02:00:24;;;;;;;11.25;8.13;;;;;17.20;102825.00;;;;5055398;28;20226;-75
2021/09/22 02:02:51;;;;;;;11.43;8.25;;;;;17.20;102824.00;;;;5048520;28;20610;-75
2021/09/22 02:05:19;;;;;;;13.05;8.95;;;;;17.20;102826.00;;;;5049072;28;20217;-75
2021/09/22 02:07:46;;;;;;;13.30;9.60;;;;;17.10;102818.00;;;;5048352;28;20192;-75
2021/09/22 02:10:13;;;;;;;12.82;8.73;;;;;17.10;102816.00;;;;5048637;28;20206;-75
2021/09/22 02:12:40;;;;;;;12.75;9.35;;;;;17.10;102827.00;;;;5048487;28;20576;-75
2021/09/22 02:15:10;;;;;;;12.95;9.13;;;;;17.10;102826.00;;;;5054967;28;20207;-75
2021/09/22 02:17:37;;;;;;;13.20;9.57;;;;;17.10;102824.00;;;;5058649;28;20190;-75
2021/09/22 02:20:07;;;;;;;11.88;8.50;;;;;17.10;102818.00;;;;5066698;28;20244;-75
2021/09/22 02:22:34;;;;;;;11.25;8.27;;;;;17.10;102809.00;;;;5062521;28;20286;-75
2021/09/22 02:25:03;;;;;;;13.43;8.82;;;;;17.10;102810.00;;;;5047795;28;20203;-75
2021/09/22 02:27:30;;;;;;;12.88;9.27;;;;;17.10;102810.00;;;;5046794;28;20602;-75
2021/09/22 02:29:57;;;;;;;12.55;9.60;;;;;17.10;102804.00;;;;5050001;28;20207;-75
2021/09/22 02:32:26;;;;;;;12.57;8.85;;;;;17.00;102798.00;;;;5046764;28;20196;-75
2021/09/22 02:34:53;;;;;;;14.57;9.52;;;;;17.00;102794.00;;;;5045805;28;20200;-75
2021/09/22 02:37:20;;;;;;;15.13;10.15;;;;;17.00;102791.00;;;;5048896;28;20269;-75
2021/09/22 02:39:47;;;;;;;15.75;10.40;;;;;17.00;102794.00;;;;5052076;28;20704;-75
2021/09/22 02:42:15;;;;;;;14.32;10.27;;;;;17.00;102789.00;;;;5052716;28;20200;-75
2021/09/22 02:44:42;;;;;;;14.98;10.38;;;;;17.00;102797.00;;;;5050354;28;20207;-75
2021/09/22 02:47:09;;;;;;;15.52;10.50;;;;;17.00;102805.00;;;;5060057;28;20209;-75
2021/09/22 02:49:38;;;;;;;12.50;9.02;;;;;17.00;102799.00;;;;5062117;28;20187;-75
2021/09/22 02:52:06;;;;;;;13.00;9.90;;;;;17.00;102795.00;;;;5051878;28;20191;-75
2021/09/22 02:54:33;;;;;;;13.73;10.25;;;;;17.00;102789.00;;;;5063868;28;20191;-75
2021/09/22 02:57:00;;;;;;;12.45;9.02;;;;;17.00;102793.00;;;;5050631;28;20206;-75
2021/09/22 02:59:28;;;;;;;13.13;9.57;;;;;17.00;102788.00;;;;5052052;28;20580;-75
2021/09/22 03:01:55;;;;;;;15.43;10.55;;;;;17.00;102782.00;;;;5051031;28;20609;-75
2021/09/22 03:04:22;;;;;;;14.05;9.68;;;;;17.00;102779.00;;;;5050894;28;20572;-75
2021/09/22 03:06:51;;;;;;;14.70;9.90;;;;;17.00;102784.00;;;;5051484;28;20196;-75
2021/09/22 03:09:18;;;;;;;13.10;9.43;;;;;17.00;102782.00;;;;5051065;28;20665;-75
2021/09/22 03:11:45;;;;;;;12.90;9.68;;;;;16.90;102781.00;;;;5054954;28;20203;-75
2021/09/22 03:14:13;;;;;;;12.98;9.43;;;;;16.90;102781.00;;;;5051576;28;20207;-75
2021/09/22 03:16:40;;;;;;;12.90;9.70;;;;;16.90;102782.00;;;;5055773;28;20191;-75
2021/09/22 03:19:07;;;;;;;13.40;9.98;;;;;16.90;102779.00;;;;5055654;28;20192;-75
2021/09/22 03:21:34;;;;;;;12.98;9.85;;;;;16.90;102777.00;;;;5055728;28;20200;-75
2021/09/22 03:24:03;;;;;;;13.20;9.52;;;;;16.90;102776.00;;;;5051311;28;20215;-75
2021/09/22 03:26:30;;;;;;;14.48;10.18;;;;;16.90;102771.00;;;;5051576;28;20219;-75
2021/09/22 03:28:58;;;;;;;13.30;9.77;;;;;16.80;102778.00;;;;5051316;28;20187;-76
2021/09/22 03:31:25;;;;;;;12.23;8.60;;;;;16.80;102780.00;;;;5051351;28;20200;-75
2021/09/22 03:33:52;;;;;;;13.93;9.80;;;;;16.80;102772.00;;;;5050786;28;20196;-75
2021/09/22 03:36:19;;;;;;;12.88;9.40;;;;;16.80;102773.00;;;;5050233;28;20219;-75
2021/09/22 03:38:47;;;;;;;13.52;9.43;;;;;16.80;102779.00;;;;5050365;28;20199;-75
2021/09/22 03:41:16;;;;;;;13.38;9.50;;;;;16.80;102771.00;;;;5050707;28;20615;-75
2021/09/22 03:43:43;;;;;;;13.38;9.00;;;;;16.70;102768.00;;;;5050403;28;20265;-75
2021/09/22 03:46:10;;;;;;;14.05;9.25;;;;;16.70;102770.00;;;;5050234;28;20195;-75
2021/09/22 03:48:38;;;;;;;13.95;9.70;;;;;16.70;102766.00;;;;5067607;28;20199;-75
2021/09/22 03:51:06;;;;;;;13.65;9.32;;;;;16.70;102774.00;;;;5055653;28;20199;-75
2021/09/22 03:53:33;;;;;;;13.82;9.55;;;;;16.70;102778.00;;;;5050490;28;20199;-75
2021/09/22 03:56:01;;;;;;;13.13;9.15;;;;;16.70;102772.00;;;;5054672;28;20206;-75
2021/09/22 03:58:30;;;;;;;13.73;9.68;;;;;16.60;102768.00;;;;5056214;28;20662;-75
2021/09/22 04:00:58;;;;;;;14.00;9.45;;;;;16.60;102771.00;;;;5050020;28;20723;-75
2021/09/22 04:03:26;;;;;;;13.02;8.98;;;;;16.60;102762.00;;;;5056676;28;20199;-75
2021/09/22 04:05:53;;;;;;;13.30;9.38;;;;;16.60;102765.00;;;;5053203;28;20203;-75
2021/09/22 04:08:20;;;;;;;16.10;9.23;;;;;16.60;102759.00;;;;5050005;28;20222;-75
2021/09/22 04:10:47;;;;;;;12.40;9.25;;;;;16.60;102757.00;;;;5050244;28;20195;-75
2021/09/22 04:13:15;;;;;;;13.90;9.80;;;;;16.60;102755.00;;;;5048499;28;20196;-75
2021/09/22 04:15:43;;;;;;;14.77;9.68;;;;;16.50;102745.00;;;;5047535;28;20203;-75
2021/09/22 04:18:10;;;;;;;15.48;9.82;;;;;16.50;102739.00;;;;5046811;28;20211;-76
2021/09/22 04:20:38;;;;;;;13.23;9.43;;;;;16.50;102740.00;;;;5047405;28;20219;-75
2021/09/22 04:23:05;;;;;;;13.75;9.70;;;;;16.50;102742.00;;;;5047232;28;20249;-75
2021/09/22 04:25:32;;;;;;;13.27;9.85;;;;;16.50;102750.00;;;;5048404;28;20188;-75
2021/09/22 04:27:59;;;;;;;14.07;9.38;;;;;16.50;102750.00;;;;5048877;28;20207;-75
2021/09/22 04:30:27;;;;;;;12.85;9.30;;;;;16.50;102744.00;;;;5049175;28;20584;-75
2021/09/22 04:32:55;;;;;;;12.23;8.43;;;;;16.50;102764.00;;;;5050132;28;20202;-76
2021/09/22 04:35:23;;;;;;;13.40;10.30;;;;;16.40;102749.00;;;;5065194;28;20320;-75
2021/09/22 04:37:52;;;;;;;13.93;9.73;;;;;16.40;102759.00;;;;5049501;28;20705;-76
2021/09/22 04:40:19;;;;;;;13.85;9.63;;;;;16.40;102761.00;;;;5056112;28;20266;-75
2021/09/22 04:42:46;;;;;;;11.65;9.15;;;;;16.40;102765.00;;;;5068302;28;20199;-76
2021/09/22 04:45:14;;;;;;;12.30;8.98;;;;;16.40;102760.00;;;;5059669;28;20199;-75
2021/09/22 04:47:41;;;;;;;13.27;8.93;;;;;16.40;102767.00;;;;5065163;28;20192;-75
2021/09/22 04:50:10;;;;;;;11.90;8.95;;;;;16.30;102769.00;;;;5054753;28;20199;-75
2021/09/22 04:52:38;;;;;;;16.02;10.40;;;;;16.30;102765.00;;;;5048664;28;20192;-75
2021/09/22 04:55:06;;;;;;;13.95;8.88;;;;;16.30;102767.00;;;;5065194;28;20195;-75
2021/09/22 04:57:33;;;;;;;12.68;8.75;;;;;16.30;102766.00;;;;5068366;28;20206;-75
2021/09/22 05:00:00;;;;;;;13.95;10.00;;;;;16.30;102771.00;;;;5057949;28;20219;-75
2021/09/22 05:02:28;;;;;;;13.77;9.10;;;;;16.30;102770.00;;;;5055421;28;20206;-75
2021/09/22 05:04:55;;;;;;;13.38;9.57;;;;;16.30;102774.00;;;;5048910;28;20207;-75
2021/09/22 05:07:23;;;;;;;12.52;9.60;;;;;16.30;102774.00;;;;5048465;28;20196;-75
2021/09/22 05:09:50;;;;;;;13.30;9.45;;;;;16.30;102776.00;;;;5058027;28;20203;-75
2021/09/22 05:12:18;;;;;;;12.35;9.15;;;;;16.30;102787.00;;;;5049292;28;20191;-76
2021/09/22 05:14:45;;;;;;;12.40;8.75;;;;;16.30;102783.00;;;;5052073;28;20196;-76
2021/09/22 05:17:13;;;;;;;16.48;10.00;;;;;16.30;102789.00;;;;5059186;28;20196;-75
2021/09/22 05:19:40;;;;;;;14.93;10.38;;;;;16.30;102793.00;;;;5052604;28;20203;-75
2021/09/22 05:22:07;;;;;;;12.65;9.18;;;;;16.30;102801.00;;;;5048462;28;20217;-75
2021/09/22 05:24:36;;;;;;;13.05;9.57;;;;;16.20;102794.00;;;;5058745;28;20914;-75
2021/09/22 05:27:06;;;;;;;13.15;9.15;;;;;16.20;102792.00;;;;5055246;28;20199;-75
2021/09/22 05:29:34;;;;;;;14.75;9.95;;;;;16.30;102797.00;;;;5051854;28;21132;-75
2021/09/22 05:32:01;;;;;;;13.32;9.65;;;;;16.30;102799.00;;;;5058651;28;20212;-75
2021/09/22 05:34:28;;;;;;;13.80;9.95;;;;;16.30;102793.00;;;;5047591;28;20198;-75
2021/09/22 05:36:55;;;;;;;20.92;13.48;;;;;16.30;102789.00;;;;5047022;28;20460;-75
2021/09/22 05:39:22;;;;;;;16.85;11.68;;;;;16.30;102792.00;;;;5054985;28;20199;-75
2021/09/22 05:41:51;;;;;;;13.98;9.95;;;;;16.30;102789.00;;;;5046310;28;20254;-75
2021/09/22 05:44:18;;;;;;;14.40;9.80;;;;;16.30;102796.00;;;;5045648;28;20196;-75
2021/09/22 05:46:46;;;;;;;14.98;9.20;;;;;16.30;102794.00;;;;5053886;28;20218;-75
2021/09/22 05:49:13;;;;;;;15.65;10.30;;;;;16.30;102793.00;;;;5058187;28;20204;-75
2021/09/22 05:51:40;;;;;;;13.65;9.80;;;;;16.30;102799.00;;;;5054513;28;20211;-75
2021/09/22 05:54:07;;;;;;;12.93;9.65;;;;;16.30;102795.00;;;;5050000;28;20200;-75
2021/09/22 05:56:35;;;;;;;13.55;9.88;;;;;16.30;102792.00;;;;5060720;28;20210;-75
2021/09/22 05:59:04;;;;;;;13.25;9.75;;;;;16.30;102794.00;;;;5054182;28;20203;-75
2021/09/22 06:01:31;;;;;;;14.30;10.48;;;;;16.40;102798.00;;;;5058872;28;20275;-75
2021/09/22 06:03:58;;;;;;;13.23;9.48;;;;;16.40;102803.00;;;;5055858;28;20207;-75
2021/09/22 06:06:25;;;;;;;16.00;10.80;;;;;16.40;102795.00;;;;5051705;28;20194;-74
2021/09/22 06:08:53;;;;;;;16.92;10.88;;;;;16.40;102801.00;;;;5049077;28;20602;-75
2021/09/22 06:11:20;;;;;;;12.85;9.93;;;;;16.50;102801.00;;;;5054602;28;20584;-76
2021/09/22 06:13:52;;;;;;;15.73;10.40;;;;;16.50;102804.00;;;;5060466;28;20833;-76
2021/09/22 06:16:21;;;;;;;12.65;9.82;;;;;16.50;102803.00;;;;5050503;28;20848;-77
2021/09/22 06:18:48;;;;;;;14.90;10.23;;;;;16.50;102796.00;;;;5049098;28;20758;-76
2021/09/22 06:21:16;;;;;;;14.07;10.75;;;;;16.50;102798.00;;;;5051394;28;20219;-76
2021/09/22 06:23:43;;;;;;;13.27;10.50;;;;;16.60;102797.00;;;;5055798;28;20214;-76
2021/09/22 06:26:11;;;;;;;14.40;10.60;;;;;16.60;102797.00;;;;5053680;28;20191;-75
2021/09/22 06:28:38;;;;;;;13.77;9.65;;;;;16.60;102802.00;;;;5065851;28;20267;-75
2021/09/22 06:31:05;;;;;;;14.38;10.30;;;;;16.70;102800.00;;;;5058499;28;20204;-76
2021/09/22 06:33:34;;;;;;;13.48;9.98;;;;;16.70;102806.00;;;;5062154;28;20195;-76
2021/09/22 06:36:01;;;;;;;13.55;10.20;;;;;16.80;102808.00;;;;5050017;28;20219;-75
2021/09/22 06:38:29;;;;;;;14.80;10.15;;;;;16.80;102810.00;;;;5048485;28;20206;-76
2021/09/22 06:40:57;;;;;;;14.32;10.73;;;;;16.80;102809.00;;;;5050297;28;20238;-75
2021/09/22 06:43:24;;;;;;;14.23;9.95;;;;;16.90;102814.00;;;;5056336;28;20203;-76
2021/09/22 06:45:51;;;;;;;14.07;10.55;;;;;16.90;102808.00;;;;5061520;28;20199;-76
2021/09/22 06:48:19;;;;;;;13.90;10.25;;;;;17.00;102814.00;;;;5051353;28;20199;-76
2021/09/22 06:50:48;;;;;;;13.93;10.27;;;;;17.00;102814.00;;;;5047314;28;20214;-75
2021/09/22 06:53:17;;;;;;;14.25;10.20;;;;;17.10;102816.00;;;;5059429;28;20214;-76
2021/09/22 06:55:44;;;;;;;14.27;10.20;;;;;17.20;102815.00;;;;5067198;28;20203;-76
2021/09/22 06:58:11;;;;;;;14.20;10.50;;;;;17.20;102811.00;;;;5055542;28;20196;-76
2021/09/22 07:00:38;;;;;;;14.07;10.20;;;;;17.30;102810.00;;;;5065095;28;20607;-76
2021/09/22 07:03:11;;;;;;;13.82;10.48;;;;;17.40;102820.00;;;;5049559;28;20191;-76
2021/09/22 07:05:38;;;;;;;13.75;10.90;;;;;17.50;102820.00;;;;5053301;28;20281;-76
2021/09/22 07:08:07;;;;;;;15.45;9.80;;;;;17.50;102825.00;;;;5054459;28;21728;-76
2021/09/22 07:10:36;;;;;;;13.98;10.75;;;;;17.60;102825.00;;;;5049360;28;20830;-77
2021/09/22 07:13:03;;;;;;;14.05;10.80;;;;;17.70;102822.00;;;;5047099;28;21048;-77
2021/09/22 07:15:31;;;;;;;14.80;10.82;;;;;17.80;102826.00;;;;5052302;28;20188;-76
2021/09/22 07:17:58;;;;;;;13.93;10.48;;;;;17.80;102829.00;;;;5057283;28;20204;-75
2021/09/22 07:20:25;;;;;;;16.90;10.75;;;;;17.90;102826.00;;;;5050730;28;20203;-76
2021/09/22 07:22:54;;;;;;;14.00;11.27;;;;;17.90;102830.00;;;;5050988;28;20257;-76
2021/09/22 07:25:23;;;;;;;15.30;11.35;;;;;18.00;102827.00;;;;5057788;28;20202;-76
2021/09/22 07:27:50;;;;;;;13.55;9.93;;;;;18.10;102827.00;;;;5048683;28;20200;-76
2021/09/22 07:30:18;;;;;;;15.13;10.88;;;;;18.20;102829.00;;;;5049701;28;20210;-76
2021/09/22 07:32:48;;;;;;;16.42;11.90;;;;;18.20;102833.00;;;;5059207;28;20219;-76
2021/09/22 07:35:17;;;;;;;15.20;10.68;;;;;18.30;102833.00;;;;5050692;28;20586;-75
2021/09/22 07:37:45;;;;;;;13.93;10.48;;;;;18.40;102840.00;;;;5050507;28;20298;-76
2021/09/22 07:40:14;;;;;;;13.13;10.30;;;;;18.40;102839.00;;;;5056831;28;20258;-75
2021/09/22 07:42:43;;;;;;;14.57;10.82;;;;;18.50;102834.00;;;;5051501;28;20207;-76
2021/09/22 07:45:12;;;;;;;14.27;10.73;;;;;18.60;102834.00;;;;5066609;28;20207;-75
2021/09/22 07:47:40;;;;;;;13.73;10.65;;;;;18.70;102836.00;;;;5051812;28;20195;-75
2021/09/22 07:50:09;;;;;;;16.67;11.32;;;;;18.80;102822.00;;;;5053784;28;20199;-75
2021/09/22 07:52:37;;;;;;;13.73;10.43;;;;;18.90;102825.00;;;;5057674;28;21001;-75
2021/09/22 07:55:06;;;;;;;16.85;11.65;;;;;19.00;102818.00;;;;5054414;28;20669;-76
2021/09/22 07:57:33;;;;;;;14.48;11.00;;;;;19.10;102819.00;;;;5063560;28;20692;-76
2021/09/22 08:00:02;;;;;;;13.65;10.68;;;;;19.10;102814.00;;;;5049398;28;20207;-75
2021/09/22 08:02:30;;;;;;;13.88;10.68;;;;;19.20;102818.00;;;;5051528;28;20697;-80
2021/09/22 08:04:57;;;;;;;16.55;11.43;;;;;19.30;102820.00;;;;5055972;28;20215;-75
2021/09/22 08:07:24;;;;;;;14.88;11.25;;;;;19.40;102822.00;;;;5059205;28;20660;-75
2021/09/22 08:09:51;;;;;;;13.00;10.52;;;;;19.50;102823.00;;;;5061049;28;20200;-75
2021/09/22 08:12:18;;;;;;;14.35;10.23;;;;;19.60;102816.00;;;;5053698;28;20200;-75
2021/09/22 08:14:46;;;;;;;14.82;11.20;;;;;19.70;102819.00;;;;5062984;28;20198;-76
2021/09/22 08:17:17;;;;;;;13.45;11.07;;;;;19.80;102816.00;;;;5060063;28;20202;-77
2021/09/22 08:19:45;;;;;;;13.88;10.57;;;;;19.90;102825.00;;;;5058369;28;20203;-77
2021/09/22 08:22:12;;;;;;;13.57;10.68;;;;;20.10;102820.00;;;;5049183;28;20216;-77
2021/09/22 08:24:40;;;;;;;13.40;11.18;;;;;20.20;102827.00;;;;5049475;28;20195;-77
2021/09/22 08:27:07;;;;;;;16.02;11.07;;;;;20.30;102823.00;;;;5050689;28;20661;-77
2021/09/22 08:29:35;;;;;;;12.35;9.82;;;;;20.40;102820.00;;;;5065881;28;20191;-77
2021/09/22 08:32:02;;;;;;;13.45;10.45;;;;;20.50;102823.00;;;;5052288;28;20206;-77
2021/09/22 08:34:31;;;;;;;14.07;11.30;;;;;20.60;102813.00;;;;5052498;28;20203;-77
2021/09/22 08:36:58;;;;;;;13.77;10.48;;;;;20.70;102822.00;;;;5065305;28;20222;-77
2021/09/22 08:39:29;;;;;;;12.75;9.68;;;;;20.80;102812.00;;;;5060730;28;20187;-77
2021/09/22 08:41:56;;;;;;;14.13;10.88;;;;;20.90;102807.00;;;;5050219;28;20923;-78
2021/09/22 08:44:24;;;;;;;13.50;9.93;;;;;21.00;102811.00;;;;5050948;28;20199;-78
2021/09/22 08:46:51;;;;;;;13.40;10.35;;;;;21.20;102808.00;;;;5050090;28;20218;-78
2021/09/22 08:49:18;;;;;;;15.05;11.18;;;;;21.30;102807.00;;;;5049531;28;20203;-78
2021/09/22 08:51:47;;;;;;;14.13;10.27;;;;;21.40;102813.00;;;;5050347;28;20203;-78
2021/09/22 08:54:15;;;;;;;13.90;10.32;;;;;21.50;102806.00;;;;5050078;28;20204;-78
2021/09/22 08:56:43;;;;;;;14.63;10.30;;;;;21.60;102815.00;;;;5049884;28;20212;-78
2021/09/22 08:59:14;;;;;;;12.70;9.65;;;;;21.70;102806.00;;;;5065805;28;20199;-78
2021/09/22 09:01:41;;;;;;;12.13;8.77;;;;;21.80;102813.00;;;;5052327;28;20253;-78
2021/09/22 09:04:16;;;;;;;12.70;9.25;;;;;21.90;102809.00;;;;5050583;28;20196;-78
2021/09/22 09:06:44;;;;;;;11.48;9.25;;;;;22.00;102807.00;;;;5049603;28;20207;-78
2021/09/22 09:09:13;;;;;;;15.00;9.57;;;;;22.10;102801.00;;;;5049217;28;20238;-78
2021/09/22 09:11:42;;;;;;;12.25;9.73;;;;;22.20;102797.00;;;;5049530;28;20203;-78
2021/09/22 09:14:12;;;;;;;11.73;8.55;;;;;22.20;102800.00;;;;5048233;28;20253;-78
2021/09/22 09:16:41;;;;;;;11.27;8.57;;;;;22.30;102795.00;;;;5049413;28;20212;-78
2021/09/22 09:19:13;;;;;;;10.77;8.88;;;;;22.40;102793.00;;;;5047933;28;20204;-78
2021/09/22 09:21:58;;;;;;;10.63;8.70;;;;;22.50;102796.00;;;;5047261;28;20234;-78
2021/09/22 09:24:38;;;;;;;13.25;9.13;;;;;22.60;102802.00;;;;5047749;28;20188;-78
2021/09/22 09:27:08;;;;;;;10.13;8.32;;;;;22.80;102800.00;;;;5047531;28;20199;-78
2021/09/22 09:29:35;;;;;;;10.57;8.38;;;;;22.90;102800.00;;;;5048977;28;20203;-78
2021/09/22 09:32:16;;;;;;;11.52;7.85;;;;;22.90;102800.00;;;;5049840;28;21089;-78
2021/09/22 09:34:59;;;;;;;14.07;8.48;;;;;23.00;102804.00;;;;5057491;28;20203;-78
2021/09/22 09:37:35;;;;;;;11.35;8.07;;;;;23.10;102800.00;;;;5068622;28;20592;-78
2021/09/22 09:40:23;;;;;;;12.05;7.57;;;;;23.20;102802.00;;;;5068561;28;20227;-78
2021/09/22 09:42:52;;;;;;;11.63;8.80;;;;;23.40;102799.00;;;;5068723;28;20330;-78
2021/09/22 09:45:21;;;;;;;10.40;7.78;;;;;23.50;102797.00;;;;5068286;28;20230;-78
2021/09/22 09:48:03;;;;;;;9.77;7.93;;;;;23.60;102794.00;;;;5068845;28;20202;-78
2021/09/22 09:50:31;;;;;;;11.05;8.13;;;;;23.80;102794.00;;;;5069174;28;20199;-78
2021/09/22 09:53:01;;;;;;;13.40;8.25;;;;;23.80;102794.00;;;;5049990;28;20208;-78
2021/09/22 09:55:31;;;;;;;10.30;8.07;;;;;23.90;102791.00;;;;5049468;28;20624;-78
2021/09/22 09:57:59;;;;;;;12.13;7.47;;;;;24.00;102787.00;;;;5048475;28;20188;-78
2021/09/22 10:00:45;;;;;;;13.23;8.25;;;;;23.90;102790.00;;;;5056288;28;20195;-78
2021/09/22 10:03:14;;;;;;;9.25;7.43;;;;;24.10;102786.00;;;;5069004;28;20226;-78
2021/09/22 10:05:41;;;;;;;10.77;8.02;;;;;24.30;102779.00;;;;5068647;28;20202;-78
2021/09/22 10:08:11;;;;;;;10.93;7.97;;;;;24.30;102787.00;;;;5067469;28;20207;-78
2021/09/22 10:10:42;;;;;;;15.65;7.75;;;;;24.40;102782.00;;;;5068276;28;20226;-78
2021/09/22 10:13:10;;;;;;;10.65;8.02;;;;;24.60;102782.00;;;;5068467;28;20249;-78
2021/09/22 10:15:39;;;;;;;10.35;6.65;;;;;24.70;102785.00;;;;5068402;28;20213;-78
2021/09/22 10:18:07;;;;;;;10.95;8.05;;;;;24.90;102785.00;;;;5063625;28;20195;-78
2021/09/22 10:20:37;;;;;;;10.90;7.85;;;;;25.00;102784.00;;;;5051181;28;20195;-78
2021/09/22 10:23:04;;;;;;;9.38;7.60;;;;;25.10;102777.00;;;;5047964;28;20219;-78
2021/09/22 10:25:32;;;;;;;8.95;7.25;;;;;25.20;102783.00;;;;5055730;28;20213;-78
2021/09/22 10:28:01;;;;;;;9.90;7.93;;;;;25.30;102788.00;;;;5060371;28;20621;-78
2021/09/22 10:30:35;;;;;;;9.10;7.18;;;;;25.30;102786.00;;;;5047648;28;20199;-78
2021/09/22 10:33:03;;;;;;;10.80;7.50;;;;;25.50;102784.00;;;;5048215;28;20629;-78
2021/09/22 10:35:36;;;;;;;10.85;7.55;;;;;25.50;102781.00;;;;5047901;28;20211;-78
2021/09/22 10:38:50;;;;;;;8.73;6.40;;;;;25.50;102775.00;;;;5047709;28;20215;-78
2021/09/22 10:41:30;;;;;;;13.77;7.05;;;;;25.70;102775.00;;;;5048130;28;20231;-78
2021/09/22 10:44:00;;;;;;;11.77;7.85;;;;;25.80;102775.00;;;;5048573;28;20203;-78
2021/09/22 10:46:31;;;;;;;10.75;8.27;;;;;25.80;102771.00;;;;5048325;28;20314;-78
2021/09/22 10:49:01;;;;;;;9.75;7.13;;;;;25.90;102763.00;;;;5048535;28;20237;-78
2021/09/22 10:51:30;;;;;;;9.93;7.75;;;;;26.00;102764.00;;;;5048542;28;20191;-78
2021/09/22 10:54:10;;;;;;;9.70;7.10;;;;;26.00;102761.00;;;;5047876;28;20269;-78
2021/09/22 10:56:56;;;;;;;8.50;7.47;;;;;26.10;102762.00;;;;5048623;28;20665;-78
2021/09/22 10:59:37;;;;;;;7.90;6.30;;;;;26.10;102759.00;;;;5063758;28;20203;-78
2021/09/22 11:02:06;;;;;;;8.55;6.25;;;;;26.20;102759.00;;;;5057814;28;20707;-78
2021/09/22 11:04:57;;;;;;;8.73;6.57;;;;;26.20;102745.00;;;;5071803;28;20686;-78
2021/09/22 11:07:24;;;;;;;10.55;7.10;;;;;26.30;102749.00;;;;5070656;28;20206;-78
2021/09/22 11:09:52;;;;;;;9.00;6.28;;;;;26.30;102748.00;;;;5070217;28;20191;-78
2021/09/22 11:12:20;;;;;;;9.38;6.07;;;;;26.40;102741.00;;;;5072084;28;20210;-78
2021/09/22 11:14:51;;;;;;;8.75;5.45;;;;;26.40;102740.00;;;;5071919;28;20210;-78
2021/09/22 11:17:21;;;;;;;9.05;5.45;;;;;26.50;102745.00;;;;5058489;28;20199;-79
2021/09/22 11:19:50;;;;;;;6.90;5.53;;;;;26.50;102738.00;;;;5051797;28;20192;-79
2021/09/22 11:22:20;;;;;;;6.53;5.43;;;;;26.60;102737.00;;;;5051685;28;20231;-78
2021/09/22 11:24:48;;;;;;;5.93;5.32;;;;;26.60;102734.00;;;;5051571;28;20208;-78
2021/09/22 11:27:17;;;;;;;6.28;4.95;;;;;26.60;102730.00;;;;5051981;28;20203;-78
2021/09/22 11:29:48;;;;;;;9.43;6.00;;;;;26.70;102727.00;;;;5050749;28;20716;-78
2021/09/22 11:32:34;;;;;;;7.63;5.63;;;;;26.60;102727.00;;;;5051820;28;20261;-78
2021/09/22 11:35:04;;;;;;;8.40;5.45;;;;;26.70;102724.00;;;;5051767;28;20206;-78
2021/09/22 11:37:36;;;;;;;6.15;5.03;;;;;26.70;102723.00;;;;5051923;28;20693;-78
2021/09/22 11:40:14;;;;;;;9.65;5.10;;;;;26.70;102716.00;;;;5051529;28;20212;-78
2021/09/22 11:42:54;;;;;;;4.28;3.63;;;;;26.70;102717.00;;;;5051047;28;20254;-78
2021/09/22 11:45:22;;;;;;;6.18;3.92;;;;;26.80;102710.00;;;;5051605;28;20288;-79
2021/09/22 11:47:50;;;;;;;7.25;4.05;;;;;26.80;102713.00;;;;5051522;28;20219;-77
2021/09/22 11:50:26;;;;;;;5.40;4.32;;;;;26.80;102703.00;;;;5062901;28;20661;-78
2021/09/22 11:52:53;;;;;;;4.63;3.17;;;;;26.90;102703.00;;;;5054904;28;20218;-78
2021/09/22 11:55:20;;;;;;;5.63;3.70;;;;;26.90;102703.00;;;;5068890;28;20204;-78
2021/09/22 11:57:48;;;;;;;8.65;3.95;;;;;26.90;102702.00;;;;5070695;28;20357;-78
2021/09/22 12:00:16;;;;;;;7.00;4.53;;;;;27.00;102691.00;;;;5068838;28;20190;-78
2021/09/22 12:02:44;;;;;;;3.63;3.10;;;;;27.00;102695.00;;;;5071003;28;20234;-77
2021/09/22 12:05:17;;;;;;;4.45;3.60;;;;;26.90;102688.00;;;;5056973;28;20199;-77
2021/09/22 12:07:45;;;;;;;3.13;2.83;;;;;27.00;102678.00;;;;5058702;28;20210;-76